Time;durP1;ratioP1;P1;durP2;ratioP2;P2;SDS_P1;SDS_P2;PMS_P1;PMS_P2;Temp;Humidity;BMP_temperature;BMP_pressure;BME280_temperature;BME280_humidity;BME280_pressure;Samples;Min_cycle;Max_cycle;Signal;HPM_P1;HPM_P2
2021/01/03 00:01:14;;;;;;;2.90;2.67;;;0.00;99.90;;;;;;5135018;27;20212;-52
2021/01/03 00:03:41;;;;;;;7.68;3.92;;;-0.10;99.90;;;;;;5135236;27;20213;-50
2021/01/03 00:06:13;;;;;;;9.25;5.97;;;-0.10;99.90;;;;;;5134943;27;20610;-51
2021/01/03 00:08:41;;;;;;;8.60;3.63;;;-0.10;99.90;;;;;;5134903;27;20206;-49
2021/01/03 00:11:08;;;;;;;11.45;7.00;;;-0.10;99.90;;;;;;5135317;27;20213;-51
2021/01/03 00:13:36;;;;;;;8.88;5.05;;;-0.10;99.90;;;;;;5117331;27;20184;-52
2021/01/03 00:16:03;;;;;;;15.98;8.55;;;-0.10;99.90;;;;;;5136496;27;20175;-51
2021/01/03 00:18:30;;;;;;;10.57;6.80;;;0.00;99.90;;;;;;5117132;27;20205;-51
2021/01/03 00:20:58;;;;;;;7.38;6.68;;;0.10;99.90;;;;;;5133550;27;20225;-48
2021/01/03 00:23:27;;;;;;;10.73;4.97;;;0.10;99.90;;;;;;5114590;27;20209;-52
2021/01/03 00:25:54;;;;;;;8.25;6.55;;;0.10;99.90;;;;;;5132859;27;20209;-50
2021/01/03 00:28:22;;;;;;;7.43;6.15;;;0.20;99.90;;;;;;5132933;27;20178;-50
2021/01/03 00:30:49;;;;;;;11.00;6.22;;;0.20;99.90;;;;;;5132855;27;20225;-49
2021/01/03 00:33:16;;;;;;;8.65;7.82;;;0.20;99.90;;;;;;5133015;27;20694;-48
2021/01/03 00:35:43;;;;;;;9.43;5.65;;;0.20;99.90;;;;;;5132775;27;20550;-50
2021/01/03 00:38:12;;;;;;;13.35;5.70;;;0.20;99.90;;;;;;5132661;27;20198;-48
2021/01/03 00:40:40;;;;;;;9.20;5.43;;;0.30;99.90;;;;;;5132666;27;20213;-48
2021/01/03 00:43:10;;;;;;;7.93;6.13;;;0.20;99.90;;;;;;5132725;27;20186;-48
2021/01/03 00:45:37;;;;;;;11.90;7.70;;;0.20;99.90;;;;;;5144882;27;20205;-47
2021/01/03 00:48:06;;;;;;;6.97;4.03;;;0.10;99.90;;;;;;5154156;27;20299;-51
2021/01/03 00:50:33;;;;;;;10.75;3.90;;;0.10;99.90;;;;;;5154375;27;20250;-49
2021/01/03 00:53:00;;;;;;;8.13;6.10;;;0.10;99.90;;;;;;5153675;27;20179;-45
2021/01/03 00:55:28;;;;;;;3.90;3.25;;;0.10;99.90;;;;;;5153742;27;20182;-47
2021/01/03 00:57:56;;;;;;;8.07;7.20;;;0.10;99.90;;;;;;5154467;27;20250;-46
2021/01/03 01:00:25;;;;;;;8.65;6.82;;;0.10;99.90;;;;;;5153703;27;20216;-46
2021/01/03 01:02:52;;;;;;;7.97;6.00;;;0.00;99.90;;;;;;5153351;27;20184;-49
2021/01/03 01:05:21;;;;;;;6.63;5.32;;;0.00;99.90;;;;;;5135287;27;20236;-45
2021/01/03 01:07:52;;;;;;;11.75;7.00;;;-0.10;99.90;;;;;;5154861;27;20200;-52
2021/01/03 01:10:22;;;;;;;10.77;6.97;;;-0.20;99.90;;;;;;5154426;27;20229;-52
2021/01/03 01:12:50;;;;;;;10.40;5.32;;;-0.20;99.90;;;;;;5154559;27;20231;-48
2021/01/03 01:15:20;;;;;;;13.18;5.35;;;-0.20;99.90;;;;;;5155128;27;20185;-51
2021/01/03 01:17:48;;;;;;;9.65;4.45;;;-0.30;99.90;;;;;;5154123;27;20177;-51
2021/01/03 01:20:17;;;;;;;9.75;4.28;;;-0.30;99.90;;;;;;5152837;27;20205;-48
2021/01/03 01:22:45;;;;;;;8.45;6.90;;;-0.40;99.90;;;;;;5152975;27;20252;-51
2021/01/03 01:25:14;;;;;;;9.23;6.95;;;-0.40;99.90;;;;;;5152547;27;20201;-46
2021/01/03 01:27:41;;;;;;;7.30;4.82;;;-0.40;99.90;;;;;;5153041;27;20177;-48
2021/01/03 01:30:10;;;;;;;7.97;6.90;;;-0.40;99.90;;;;;;5152357;27;20299;-50
2021/01/03 01:32:39;;;;;;;12.57;4.55;;;-0.40;99.90;;;;;;5152374;27;20192;-52
2021/01/03 01:35:08;;;;;;;10.13;6.63;;;-0.40;99.90;;;;;;5152495;27;20661;-46
2021/01/03 01:37:35;;;;;;;7.32;5.85;;;-0.40;99.90;;;;;;5152475;27;20174;-48
2021/01/03 01:40:06;;;;;;;12.75;8.60;;;-0.40;99.90;;;;;;5152333;27;20220;-52
2021/01/03 01:42:33;;;;;;;8.75;4.32;;;-0.40;99.90;;;;;;5152430;27;20188;-52
2021/01/03 01:45:01;;;;;;;6.90;3.75;;;-0.40;99.90;;;;;;5133539;27;20216;-48
2021/01/03 01:47:31;;;;;;;8.40;5.53;;;-0.30;99.90;;;;;;5153619;27;20166;-45
2021/01/03 01:50:01;;;;;;;11.82;4.72;;;-0.30;99.90;;;;;;5156556;27;20618;-50
2021/01/03 01:52:40;;;;;;;9.77;3.88;;;-0.20;99.90;;;;;;5156555;27;20271;-47
2021/01/03 01:55:15;;;;;;;11.88;4.90;;;-0.30;99.90;;;;;;5138743;27;20189;-48
2021/01/03 01:57:46;;;;;;;8.63;6.15;;;-0.30;99.90;;;;;;5158027;27;20218;-46
2021/01/03 02:00:17;;;;;;;5.35;4.38;;;-0.40;99.90;;;;;;5156965;27;20204;-48
2021/01/03 02:02:51;;;;;;;4.65;4.25;;;-0.40;99.90;;;;;;5156550;27;20583;-45
2021/01/03 02:05:25;;;;;;;8.25;4.30;;;-0.50;99.90;;;;;;5156081;27;20200;-50
2021/01/03 02:07:58;;;;;;;9.02;5.45;;;-0.50;99.90;;;;;;5156219;27;20189;-51
2021/01/03 02:10:30;;;;;;;9.68;5.55;;;-0.60;99.90;;;;;;5156338;27;20572;-48
2021/01/03 02:13:11;;;;;;;13.38;5.97;;;-0.60;99.90;;;;;;5156290;27;20646;-48
2021/01/03 02:15:40;;;;;;;9.80;4.00;;;-0.60;99.90;;;;;;5156224;27;20529;-47
2021/01/03 02:18:09;;;;;;;8.32;4.10;;;-0.60;99.90;;;;;;5156303;27;20211;-44
2021/01/03 02:21:09;;;;;;;11.48;6.10;;;-0.60;99.90;;;;;;5157112;27;20205;-57
2021/01/03 02:23:43;;;;;;;15.48;3.80;;;-0.50;99.90;;;;;;5156266;27;20256;-46
2021/01/03 02:26:13;;;;;;;9.77;5.72;;;-0.60;99.90;;;;;;5156085;27;20222;-47
2021/01/03 02:28:42;;;;;;;16.10;6.35;;;-0.50;99.90;;;;;;5155919;27;20193;-48
2021/01/03 02:31:13;;;;;;;5.97;3.78;;;-0.60;99.90;;;;;;5156523;27;20213;-50
2021/01/03 02:33:42;;;;;;;8.48;5.88;;;-0.50;99.90;;;;;;5155868;27;20177;-49
2021/01/03 02:36:16;;;;;;;7.90;6.13;;;-0.50;99.90;;;;;;5155945;27;20278;-46
2021/01/03 02:38:54;;;;;;;8.55;5.05;;;-0.50;99.90;;;;;;5137307;27;20214;-48
2021/01/03 02:41:23;;;;;;;8.60;4.47;;;-0.40;99.90;;;;;;5155909;27;20250;-47
2021/01/03 02:43:50;;;;;;;7.45;6.60;;;-0.40;99.90;;;;;;5155820;27;20241;-53
2021/01/03 02:46:17;;;;;;;9.90;5.85;;;-0.30;99.90;;;;;;5155874;27;20205;-48
2021/01/03 02:48:45;;;;;;;8.57;5.00;;;-0.30;99.90;;;;;;5155800;27;20185;-51
2021/01/03 02:51:12;;;;;;;7.32;3.95;;;-0.30;99.90;;;;;;5156467;27;20629;-46
2021/01/03 02:53:39;;;;;;;6.03;4.70;;;-0.30;99.90;;;;;;5156151;27;20177;-48
2021/01/03 02:56:06;;;;;;;10.75;5.05;;;-0.30;99.90;;;;;;5156732;27;20170;-50
2021/01/03 02:58:34;;;;;;;6.40;4.25;;;-0.30;99.90;;;;;;5155965;27;20226;-47
2021/01/03 03:01:01;;;;;;;7.05;3.83;;;-0.30;99.90;;;;;;5155619;27;20212;-54
2021/01/03 03:03:28;;;;;;;9.02;6.57;;;-0.30;99.90;;;;;;5155506;27;20506;-48
2021/01/03 03:05:55;;;;;;;11.98;7.90;;;-0.30;99.90;;;;;;5155550;27;20193;-45
2021/01/03 03:08:23;;;;;;;5.57;2.95;;;-0.20;99.90;;;;;;5155528;27;20325;-48
2021/01/03 03:10:50;;;;;;;9.32;5.13;;;-0.20;99.90;;;;;;5155369;27;20205;-52
2021/01/03 03:13:17;;;;;;;6.10;4.53;;;-0.10;99.90;;;;;;5155531;27;20204;-49
2021/01/03 03:15:45;;;;;;;9.13;6.20;;;-0.10;99.90;;;;;;5155036;27;20192;-49
2021/01/03 03:18:12;;;;;;;14.18;7.75;;;-0.10;99.90;;;;;;5156445;27;20165;-45
2021/01/03 03:20:39;;;;;;;7.53;6.82;;;0.00;99.90;;;;;;5157628;27;20231;-48
2021/01/03 03:23:06;;;;;;;13.68;5.63;;;0.00;99.90;;;;;;5156936;27;20181;-47
2021/01/03 03:25:33;;;;;;;8.55;4.60;;;0.00;99.90;;;;;;5156948;27;20193;-49
2021/01/03 03:28:00;;;;;;;7.97;2.67;;;0.10;99.90;;;;;;5156847;27;20249;-48
2021/01/03 03:30:28;;;;;;;13.05;7.97;;;0.10;99.90;;;;;;5156795;27;20216;-48
2021/01/03 03:32:58;;;;;;;10.65;5.50;;;0.10;99.90;;;;;;5156586;27;20189;-51
2021/01/03 03:35:27;;;;;;;8.93;5.32;;;0.10;99.90;;;;;;5156352;27;20170;-51
2021/01/03 03:37:55;;;;;;;8.10;4.20;;;0.10;99.90;;;;;;5156609;27;20173;-48
2021/01/03 03:40:23;;;;;;;20.85;6.80;;;0.10;99.90;;;;;;5156464;27;20220;-48
2021/01/03 03:42:51;;;;;;;9.55;5.90;;;0.10;99.90;;;;;;5156483;27;20170;-47
2021/01/03 03:45:18;;;;;;;5.35;4.38;;;0.10;99.90;;;;;;5156070;27;20662;-53
2021/01/03 03:47:45;;;;;;;6.80;4.63;;;0.20;99.90;;;;;;5156252;27;20174;-53
2021/01/03 03:50:16;;;;;;;8.57;5.18;;;0.20;99.90;;;;;;5156082;27;20216;-49
2021/01/03 03:52:44;;;;;;;6.68;3.10;;;0.20;49.10;;;;;;5156403;27;20178;-47
2021/01/03 03:55:12;;;;;;;9.90;5.53;;;0.20;1.00;;;;;;5156260;27;20174;-49
2021/01/03 03:57:39;;;;;;;8.70;4.22;;;0.20;1.00;;;;;;5156227;27;20189;-52
2021/01/03 04:00:09;;;;;;;10.02;8.00;;;0.30;1.00;;;;;;5155708;27;20209;-46
2021/01/03 04:02:40;;;;;;;8.52;3.38;;;0.30;99.90;;;;;;5156075;27;20199;-47
2021/01/03 04:05:10;;;;;;;4.53;3.78;;;0.30;99.90;;;;;;5156709;27;20230;-47
2021/01/03 04:07:37;;;;;;;11.00;6.13;;;0.30;99.90;;;;;;5156232;27;20637;-48
2021/01/03 04:10:06;;;;;;;9.40;4.38;;;0.30;99.90;;;;;;5155787;27;20270;-50
2021/01/03 04:12:33;;;;;;;9.85;4.82;;;0.30;99.90;;;;;;5155602;27;20660;-50
2021/01/03 04:15:01;;;;;;;8.18;5.32;;;0.40;99.90;;;;;;5155744;27;20185;-50
2021/01/03 04:17:28;;;;;;;11.07;5.20;;;0.50;65.20;;;;;;5155481;27;20189;-49
2021/01/03 04:19:55;;;;;;;10.15;6.18;;;0.50;1.00;;;;;;5155512;27;20228;-48
2021/01/03 04:22:22;;;;;;;6.93;6.28;;;0.50;1.00;;;;;;5155668;27;20603;-49
2021/01/03 04:24:50;;;;;;;10.73;4.95;;;0.50;1.00;;;;;;5155569;27;20177;-48
2021/01/03 04:27:17;;;;;;;8.07;4.53;;;0.50;99.90;;;;;;5155412;27;20201;-48
2021/01/03 04:29:44;;;;;;;8.82;4.32;;;0.50;99.90;;;;;;5155327;27;20273;-48
2021/01/03 04:32:12;;;;;;;9.02;6.40;;;0.50;99.90;;;;;;5155718;27;20185;-52
2021/01/03 04:34:42;;;;;;;6.20;2.50;;;0.50;1.00;;;;;;5155154;27;20230;-52
2021/01/03 04:37:10;;;;;;;8.88;4.38;;;0.60;1.00;;;;;;5155172;27;20170;-50
2021/01/03 04:39:38;;;;;;;6.00;4.53;;;0.60;99.90;;;;;;5155287;27;20209;-53
2021/01/03 04:42:09;;;;;;;8.18;5.47;;;0.60;99.90;;;;;;5154927;27;20177;-47
2021/01/03 04:44:39;;;;;;;3.03;1.92;;;0.60;99.90;;;;;;5136421;27;20520;-47
2021/01/03 04:47:17;;;;;;;11.82;6.30;;;0.60;99.90;;;;;;5154995;27;20197;-47
2021/01/03 04:49:50;;;;;;;18.77;4.60;;;0.60;99.90;;;;;;5154972;27;20204;-47
2021/01/03 04:52:33;;;;;;;6.55;5.75;;;0.60;1.00;;;;;;5155152;27;20343;-46
2021/01/03 04:55:12;;;;;;;4.70;3.90;;;0.70;1.00;;;;;;5155185;27;20664;-50
2021/01/03 04:57:47;;;;;;;10.73;5.65;;;0.70;1.00;;;;;;5155407;27;20173;-46
2021/01/03 05:00:16;;;;;;;10.18;3.80;;;0.60;1.00;;;;;;5155585;27;20204;-47
2021/01/03 05:03:07;;;;;;;10.98;5.57;;;0.60;1.00;;;;;;5155445;27;20174;-50
2021/01/03 05:05:36;;;;;;;4.45;3.50;;;0.60;1.00;;;;;;5154830;27;20242;-48
2021/01/03 05:08:21;;;;;;;8.00;2.90;;;0.60;1.00;;;;;;5154729;27;20211;-45
2021/01/03 05:10:48;;;;;;;6.80;4.40;;;0.60;1.00;;;;;;5150895;27;20693;-47
2021/01/03 05:13:31;;;;;;;6.70;5.43;;;0.60;1.00;;;;;;5154550;27;20196;-46
2021/01/03 05:15:58;;;;;;;9.20;4.95;;;0.60;14.70;;;;;;5154545;27;20578;-50
2021/01/03 05:18:25;;;;;;;10.55;3.55;;;0.60;3.20;;;;;;5154581;27;20550;-47
2021/01/03 05:20:53;;;;;;;6.68;3.25;;;0.60;49.90;;;;;;5154529;27;20205;-48
2021/01/03 05:23:22;;;;;;;4.95;2.80;;;0.50;99.90;;;;;;5153634;27;20241;-50
2021/01/03 05:25:51;;;;;;;5.40;3.38;;;0.60;99.90;;;;;;5154511;27;20543;-50
2021/01/03 05:28:22;;;;;;;6.13;4.00;;;0.60;99.90;;;;;;5154476;27;20604;-45
2021/01/03 05:30:49;;;;;;;11.43;6.10;;;0.50;1.00;;;;;;5154850;27;20205;-45
2021/01/03 05:33:24;;;;;;;8.63;4.18;;;0.50;1.00;;;;;;5154921;27;20698;-47
2021/01/03 05:35:52;;;;;;;5.45;4.53;;;0.50;1.00;;;;;;5154825;27;20169;-48
2021/01/03 05:38:38;;;;;;;2.33;1.75;;;0.60;56.40;;;;;;5154492;27;20215;-50
2021/01/03 05:41:10;;;;;;;15.60;5.72;;;0.50;99.90;;;;;;5154423;27;20208;-48
2021/01/03 05:43:38;;;;;;;7.25;3.50;;;0.60;99.90;;;;;;5154396;27;20543;-51
2021/01/03 05:46:11;;;;;;;5.00;3.13;;;0.50;99.90;;;;;;5153985;27;20576;-45
2021/01/03 05:48:43;;;;;;;3.13;2.92;;;0.60;1.00;;;;;;5135811;27;20241;-48
2021/01/03 05:51:30;;;;;;;8.23;5.57;;;0.60;1.00;;;;;;5154292;27;20244;-48
2021/01/03 05:54:02;;;;;;;9.05;3.45;;;0.60;1.00;;;;;;5154259;27;20173;-49
2021/01/03 05:56:31;;;;;;;3.33;2.83;;;0.60;1.00;;;;;;5154488;27;20638;-47
2021/01/03 05:58:59;;;;;;;12.10;5.25;;;0.60;1.00;;;;;;5154069;27;20222;-51
2021/01/03 06:01:30;;;;;;;6.90;3.72;;;0.60;1.00;;;;;;5154312;27;20590;-48
2021/01/03 06:04:05;;;;;;;5.13;4.60;;;0.60;1.00;;;;;;5135858;27;20186;-54
2021/01/03 06:06:53;;;;;;;13.02;7.28;;;0.60;1.00;;;;;;5154300;27;20686;-49
2021/01/03 06:09:23;;;;;;;7.97;5.18;;;0.60;18.40;;;;;;5154095;27;20181;-48
2021/01/03 06:11:58;;;;;;;12.18;4.63;;;0.60;68.70;;;;;;5154164;27;20170;-49
2021/01/03 06:14:28;;;;;;;10.68;5.75;;;0.70;99.90;;;;;;5153996;27;20265;-52
2021/01/03 06:17:04;;;;;;;13.73;3.72;;;0.70;99.90;;;;;;5154049;27;20181;-50
2021/01/03 06:19:35;;;;;;;7.97;6.20;;;0.70;1.00;;;;;;5153745;27;20201;-51
2021/01/03 06:22:13;;;;;;;6.60;3.50;;;0.70;1.00;;;;;;5154372;27;20660;-52
2021/01/03 06:24:42;;;;;;;4.55;1.98;;;0.70;1.00;;;;;;5153902;27;20173;-48
2021/01/03 06:27:19;;;;;;;15.57;6.57;;;0.70;1.00;;;;;;5153902;27;20258;-50
2021/01/03 06:29:53;;;;;;;6.15;5.40;;;0.70;99.90;;;;;;5153662;27;20590;-52
2021/01/03 06:32:44;;;;;;;8.90;4.22;;;0.70;1.00;;;;;;5153667;27;20178;-51
2021/01/03 06:35:23;;;;;;;7.13;3.75;;;0.70;1.00;;;;;;5156944;27;20173;-53
2021/01/03 06:37:57;;;;;;;4.60;3.70;;;0.80;99.90;;;;;;5157718;27;20188;-51
2021/01/03 06:40:30;;;;;;;6.75;2.40;;;0.80;99.90;;;;;;5157390;27;20568;-47
2021/01/03 06:43:39;;;;;;;7.50;4.85;;;0.80;1.00;;;;;;5157500;27;20273;-45
2021/01/03 06:46:45;;;;;;;7.85;3.65;;;0.80;99.90;;;;;;5157318;27;20202;-50
2021/01/03 06:49:56;;;;;;;4.85;2.88;;;0.80;1.00;;;;;;5157796;27;20582;-46
2021/01/03 06:52:46;;;;;;;4.00;3.08;;;0.80;1.00;;;;;;5151183;27;20282;-51
2021/01/03 06:55:37;;;;;;;7.13;4.38;;;0.80;99.90;;;;;;5157432;27;20178;-50
2021/01/03 06:58:40;;;;;;;4.80;3.58;;;0.80;1.00;;;;;;5157635;27;20180;-47
2021/01/03 07:01:18;;;;;;;1.88;1.65;;;0.80;1.00;;;;;;5131095;22;20309;-48
2021/01/03 07:03:50;;;;;;;6.75;5.10;;;0.90;99.90;;;;;;5116045;28;20228;-47
2021/01/03 07:06:18;;;;;;;6.80;2.60;;;0.90;99.90;;;;;;5116089;27;20199;-48
2021/01/03 07:08:48;;;;;;;6.35;3.55;;;0.90;42.60;;;;;;5115989;28;20238;-47
2021/01/03 07:11:45;;;;;;;9.10;4.93;;;0.90;1.00;;;;;;5116254;28;20767;-45
2021/01/03 07:14:53;;;;;;;3.28;2.90;;;0.90;1.00;;;;;;5115908;28;20536;-48
2021/01/03 07:17:38;;;;;;;5.72;4.53;;;0.90;99.90;;;;;;5115886;28;20171;-51
2021/01/03 07:20:12;;;;;;;3.00;2.58;;;0.90;1.00;;;;;;5082003;28;20241;-48
2021/01/03 07:23:01;;;;;;;5.85;2.28;;;0.90;99.90;;;;;;5115777;28;20565;-51
2021/01/03 07:25:38;;;;;;;11.05;5.07;;;0.80;99.90;;;;;;5115711;28;20631;-52
2021/01/03 07:28:11;;;;;;;3.97;3.28;;;0.80;1.00;;;;;;5114639;28;20627;-45
2021/01/03 07:31:01;;;;;;;6.40;3.38;;;0.80;99.90;;;;;;5114587;28;20226;-45
2021/01/03 07:33:58;;;;;;;8.30;4.20;;;0.80;99.90;;;;;;5114144;28;20539;-53
2021/01/03 07:36:43;;;;;;;3.85;3.55;;;0.80;99.90;;;;;;5114542;28;20178;-45
2021/01/03 07:39:28;;;;;;;4.45;2.72;;;0.80;99.90;;;;;;5114386;28;20182;-45
2021/01/03 07:42:17;;;;;;;10.40;3.95;;;0.80;99.90;;;;;;5115092;28;20182;-47
2021/01/03 07:44:46;;;;;;;7.65;2.97;;;0.80;99.90;;;;;;5113631;28;20178;-51
2021/01/03 07:47:35;;;;;;;4.53;2.08;;;0.80;99.90;;;;;;5113782;28;20730;-50
2021/01/03 07:50:28;;;;;;;3.28;2.97;;;0.90;99.90;;;;;;5114018;28;20232;-47
2021/01/03 07:52:58;;;;;;;4.70;2.88;;;0.90;99.90;;;;;;5114202;28;20197;-43
2021/01/03 07:55:29;;;;;;;8.45;2.33;;;0.90;99.90;;;;;;5113420;28;20189;-51
2021/01/03 07:58:00;;;;;;;7.13;3.78;;;0.90;99.90;;;;;;5113618;28;20405;-48
2021/01/03 08:00:29;;;;;;;3.55;2.85;;;0.90;99.90;;;;;;5122343;27;20209;-48
2021/01/03 08:03:00;;;;;;;13.73;4.50;;;0.90;99.90;;;;;;5133901;27;20182;-49
2021/01/03 08:05:30;;;;;;;6.50;4.43;;;0.90;99.90;;;;;;5134027;27;20175;-49
2021/01/03 08:08:15;;;;;;;4.95;3.50;;;0.90;99.90;;;;;;5133686;27;20206;-52
2021/01/03 08:10:43;;;;;;;5.50;2.70;;;0.90;99.90;;;;;;5133857;27;20217;-48
2021/01/03 08:13:15;;;;;;;5.88;2.95;;;0.90;99.90;;;;;;5134791;27;20186;-49
2021/01/03 08:15:43;;;;;;;7.72;3.85;;;0.80;99.90;;;;;;5134536;27;20179;-47
2021/01/03 08:18:14;;;;;;;4.82;4.03;;;0.80;99.90;;;;;;5134797;27;20297;-50
2021/01/03 08:20:42;;;;;;;6.10;3.47;;;0.80;99.90;;;;;;5134132;27;20615;-49
2021/01/03 08:23:16;;;;;;;4.78;3.03;;;0.80;99.90;;;;;;5134144;27;20186;-46
2021/01/03 08:25:43;;;;;;;7.90;4.40;;;0.80;99.90;;;;;;5133728;27;20177;-49
2021/01/03 08:28:17;;;;;;;4.45;2.60;;;0.70;99.90;;;;;;5133806;27;20174;-45
2021/01/03 08:30:45;;;;;;;4.57;2.67;;;0.70;99.90;;;;;;5133909;27;20214;-46
2021/01/03 08:33:19;;;;;;;4.93;3.35;;;0.70;99.90;;;;;;5133587;27;20213;-47
2021/01/03 08:35:46;;;;;;;1.55;1.27;;;0.70;99.90;;;;;;5133716;27;20669;-53
2021/01/03 08:38:14;;;;;;;7.35;4.85;;;0.70;99.90;;;;;;5133650;27;20546;-47
2021/01/03 08:40:43;;;;;;;7.30;3.67;;;0.70;99.90;;;;;;5133217;27;20682;-50
2021/01/03 08:43:17;;;;;;;6.47;5.28;;;0.60;99.90;;;;;;5133487;27;20174;-47
2021/01/03 08:45:46;;;;;;;6.38;4.95;;;0.70;99.90;;;;;;5133627;27;20387;-47
2021/01/03 08:48:20;;;;;;;3.45;2.47;;;0.60;99.90;;;;;;5133378;27;20221;-45
2021/01/03 08:50:47;;;;;;;7.18;4.97;;;0.60;99.90;;;;;;5133207;27;20202;-47
2021/01/03 08:53:20;;;;;;;4.63;2.58;;;0.60;99.90;;;;;;5133448;27;20209;-52
2021/01/03 08:55:48;;;;;;;5.05;3.83;;;0.60;99.90;;;;;;5133318;27;20206;-50
2021/01/03 08:58:18;;;;;;;6.05;4.18;;;0.70;99.90;;;;;;5133467;27;20186;-51
2021/01/03 09:01:00;;;;;;;8.85;6.25;;;0.60;99.90;;;;;;5133479;27;20226;-48
2021/01/03 09:03:27;;;;;;;6.55;4.40;;;0.60;99.90;;;;;;5133442;27;20592;-46
2021/01/03 09:05:55;;;;;;;15.05;5.95;;;0.60;99.90;;;;;;5133209;27;20217;-51
2021/01/03 09:08:29;;;;;;;6.88;5.43;;;0.60;99.90;;;;;;5133247;27;20180;-49
2021/01/03 09:11:04;;;;;;;7.93;5.20;;;0.60;99.90;;;;;;5133312;27;20202;-48
2021/01/03 09:13:32;;;;;;;12.40;6.43;;;0.60;99.90;;;;;;5133185;27;20184;-51
2021/01/03 09:16:13;;;;;;;5.43;3.33;;;0.60;99.90;;;;;;5133446;27;20692;-56
2021/01/03 09:18:54;;;;;;;6.90;3.75;;;0.60;99.90;;;;;;5133622;27;20647;-47
2021/01/03 09:21:22;;;;;;;3.70;2.38;;;0.60;99.90;;;;;;5133465;27;20206;-47
2021/01/03 09:24:00;;;;;;;6.53;3.53;;;0.60;99.90;;;;;;5133569;27;20186;-47
2021/01/03 09:26:34;;;;;;;8.73;4.75;;;0.60;99.90;;;;;;5133262;27;20215;-51
2021/01/03 09:29:11;;;;;;;3.15;2.88;;;0.60;99.90;;;;;;5132845;27;20269;-50
2021/01/03 09:31:54;;;;;;;9.63;3.55;;;0.60;99.90;;;;;;5133812;27;20613;-49
2021/01/03 09:34:31;;;;;;;5.95;4.70;;;0.60;99.90;;;;;;5132786;27;20257;-51
2021/01/03 09:37:07;;;;;;;6.00;5.25;;;0.60;99.90;;;;;;5133110;28;20174;-49
2021/01/03 09:39:46;;;;;;;6.32;5.13;;;0.50;99.90;;;;;;5132943;28;20213;-53
2021/01/03 09:42:37;;;;;;;5.65;4.65;;;0.50;99.90;;;;;;5133135;28;20174;-49
2021/01/03 09:45:21;;;;;;;9.50;7.32;;;0.50;99.90;;;;;;5133280;28;20634;-53
2021/01/03 09:47:49;;;;;;;6.05;3.63;;;0.50;99.90;;;;;;5133252;28;20197;-52
2021/01/03 09:50:27;;;;;;;5.90;5.28;;;0.50;99.90;;;;;;5114865;28;20720;-52
2021/01/03 09:53:02;;;;;;;6.15;3.55;;;0.50;99.90;;;;;;5134054;28;20178;-50
2021/01/03 09:55:39;;;;;;;4.85;3.70;;;0.50;99.90;;;;;;5133140;28;20174;-50
2021/01/03 09:58:09;;;;;;;7.20;2.30;;;0.50;99.90;;;;;;5133278;28;20710;-51
2021/01/03 10:00:53;;;;;;;9.55;4.78;;;0.50;99.90;;;;;;5104274;28;20259;-53
2021/01/03 10:03:27;;;;;;;3.55;3.05;;;0.50;99.90;;;;;;5113968;28;20171;-51
2021/01/03 10:05:55;;;;;;;5.88;3.60;;;0.50;99.90;;;;;;5113811;28;20696;-54
2021/01/03 10:08:27;;;;;;;4.75;4.32;;;0.50;99.90;;;;;;5114739;28;20704;-52
2021/01/03 10:10:58;;;;;;;5.60;3.50;;;0.60;99.90;;;;;;5117421;28;20202;-53
2021/01/03 10:13:27;;;;;;;11.68;5.57;;;0.60;99.90;;;;;;5117711;28;20194;-52
2021/01/03 10:15:55;;;;;;;5.70;3.67;;;0.60;99.90;;;;;;5118208;28;20190;-55
2021/01/03 10:18:34;;;;;;;3.50;2.88;;;0.60;99.90;;;;;;5124259;27;20190;-55
2021/01/03 10:21:18;;;;;;;8.38;4.80;;;0.60;99.90;;;;;;5138017;27;20237;-53
2021/01/03 10:23:54;;;;;;;8.10;3.13;;;0.60;99.90;;;;;;5138002;27;20175;-51
2021/01/03 10:26:25;;;;;;;5.15;3.58;;;0.60;99.90;;;;;;5138396;27;20224;-54
2021/01/03 10:28:54;;;;;;;3.53;3.00;;;0.60;99.90;;;;;;5120267;27;20698;-52
2021/01/03 10:31:22;;;;;;;4.53;4.22;;;0.60;99.90;;;;;;5138655;27;20774;-48
2021/01/03 10:33:50;;;;;;;2.67;2.05;;;0.60;99.90;;;;;;5137980;27;20166;-50
2021/01/03 10:36:23;;;;;;;5.32;2.35;;;0.60;99.90;;;;;;5138023;27;20202;-53
2021/01/03 10:38:50;;;;;;;5.43;4.43;;;0.60;99.90;;;;;;5137737;27;20186;-55
2021/01/03 10:41:19;;;;;;;5.72;4.47;;;0.60;99.90;;;;;;5137442;27;20203;-52
2021/01/03 10:43:47;;;;;;;6.18;3.53;;;0.60;99.90;;;;;;5137129;27;20185;-53
2021/01/03 10:46:17;;;;;;;3.65;2.72;;;0.60;99.90;;;;;;5138547;27;20538;-52
2021/01/03 10:48:44;;;;;;;6.35;3.88;;;0.60;99.90;;;;;;5136923;27;20181;-49
2021/01/03 10:51:28;;;;;;;2.72;2.22;;;0.60;99.90;;;;;;5136780;27;20212;-51
2021/01/03 10:53:56;;;;;;;2.47;1.80;;;0.60;99.90;;;;;;5136715;27;20173;-55
2021/01/03 10:56:23;;;;;;;7.47;2.20;;;0.60;99.90;;;;;;5136892;27;20186;-51
2021/01/03 10:58:51;;;;;;;4.93;2.30;;;0.70;99.90;;;;;;5136700;27;20193;-55
2021/01/03 11:16:32;;;;;;;3.92;3.50;;;0.70;99.90;;;;;;6094740;22;20182;-56
2021/01/03 11:19:00;;;;;;;3.88;3.42;;;0.70;99.90;;;;;;5093453;28;20658;-53
2021/01/03 11:21:27;;;;;;;7.57;3.67;;;0.70;99.90;;;;;;5075023;28;20195;-54
2021/01/03 11:23:55;;;;;;;6.20;2.45;;;0.70;99.90;;;;;;5075546;28;20196;-56
2021/01/03 11:26:27;;;;;;;4.60;3.55;;;0.60;99.90;;;;;;5075756;28;20576;-59
2021/01/03 11:28:54;;;;;;;3.42;2.15;;;0.60;99.90;;;;;;5075932;28;20570;-54
2021/01/03 11:31:21;;;;;;;4.88;2.63;;;0.70;99.90;;;;;;5075584;28;20211;-56
2021/01/03 11:33:49;;;;;;;6.90;3.90;;;0.70;99.90;;;;;;5075474;28;20605;-57
2021/01/03 11:36:23;;;;;;;2.85;2.60;;;0.70;99.90;;;;;;5075201;28;20180;-53
2021/01/03 11:38:50;;;;;;;6.20;5.65;;;0.70;99.90;;;;;;5074761;28;20194;-57
2021/01/03 11:41:17;;;;;;;2.85;2.30;;;0.70;99.90;;;;;;5074757;28;20257;-51
2021/01/03 11:43:44;;;;;;;4.97;3.58;;;0.70;99.90;;;;;;5074810;28;20168;-51
2021/01/03 11:46:11;;;;;;;4.93;3.30;;;0.70;99.90;;;;;;5074694;28;20219;-54
2021/01/03 11:48:38;;;;;;;6.38;5.55;;;0.70;99.90;;;;;;5074739;28;20257;-54
2021/01/03 11:51:07;;;;;;;6.97;3.63;;;0.70;99.90;;;;;;5074699;28;20215;-52
2021/01/03 11:53:34;;;;;;;4.75;4.40;;;0.70;99.90;;;;;;5074493;28;20187;-55
2021/01/03 11:56:01;;;;;;;2.80;2.42;;;0.70;99.90;;;;;;5074310;28;20301;-55
2021/01/03 11:58:28;;;;;;;7.53;5.25;;;0.70;99.90;;;;;;5074650;28;20774;-57
2021/01/03 12:00:55;;;;;;;3.40;3.10;;;0.70;99.90;;;;;;5074654;28;20588;-55
2021/01/03 12:03:22;;;;;;;4.13;2.92;;;0.70;99.90;;;;;;5074715;28;20725;-55
2021/01/03 12:05:50;;;;;;;5.47;3.30;;;0.80;99.90;;;;;;5074407;28;20188;-50
2021/01/03 12:08:18;;;;;;;5.63;3.85;;;0.80;99.90;;;;;;5074630;28;20204;-53
2021/01/03 12:10:45;;;;;;;6.60;3.25;;;0.80;99.90;;;;;;5074106;28;20215;-54
2021/01/03 12:13:12;;;;;;;2.05;1.92;;;0.80;99.90;;;;;;5074172;28;20176;-53
2021/01/03 12:15:40;;;;;;;6.75;4.10;;;0.70;99.90;;;;;;5074010;28;20180;-52
2021/01/03 12:18:07;;;;;;;2.55;2.35;;;0.80;99.90;;;;;;5073614;28;20669;-52
2021/01/03 12:20:34;;;;;;;4.82;2.97;;;0.80;99.90;;;;;;5073642;28;20739;-54
2021/01/03 12:23:05;;;;;;;4.50;2.70;;;0.80;99.90;;;;;;5073754;28;20206;-55
2021/01/03 12:25:33;;;;;;;4.38;2.63;;;0.80;99.90;;;;;;5073754;28;20180;-53
2021/01/03 12:28:00;;;;;;;3.50;3.20;;;0.80;99.90;;;;;;5073523;28;20208;-53
2021/01/03 12:30:28;;;;;;;3.13;2.75;;;0.80;99.90;;;;;;5073762;28;20215;-59
2021/01/03 12:32:55;;;;;;;5.20;4.70;;;0.80;99.90;;;;;;5072923;28;20251;-56
2021/01/03 12:35:22;;;;;;;2.70;2.50;;;0.80;99.90;;;;;;5074569;28;20169;-59
2021/01/03 12:37:49;;;;;;;3.85;3.53;;;0.80;99.90;;;;;;5073859;28;20180;-54
2021/01/03 12:40:16;;;;;;;4.20;3.10;;;0.70;99.90;;;;;;5075315;28;20214;-51
2021/01/03 12:42:44;;;;;;;9.52;3.20;;;0.70;99.90;;;;;;5055759;28;20184;-58
2021/01/03 12:45:14;;;;;;;2.50;2.10;;;0.70;99.90;;;;;;5073267;28;20188;-61
2021/01/03 12:47:41;;;;;;;6.10;3.33;;;0.70;99.90;;;;;;5073197;28;20208;-59
2021/01/03 12:50:09;;;;;;;3.35;2.97;;;0.70;99.90;;;;;;5073412;28;20208;-58
2021/01/03 12:52:36;;;;;;;3.17;2.97;;;0.70;99.90;;;;;;5073165;28;20192;-59
2021/01/03 12:55:06;;;;;;;5.22;3.67;;;0.70;99.90;;;;;;5073179;28;20246;-60
2021/01/03 12:57:33;;;;;;;5.57;2.75;;;0.70;99.90;;;;;;5073065;28;20579;-60
2021/01/03 13:00:01;;;;;;;2.25;2.10;;;0.70;99.90;;;;;;5073047;28;20281;-59
2021/01/03 13:02:28;;;;;;;4.38;3.22;;;0.70;99.90;;;;;;5055132;28;20245;-60
2021/01/03 13:04:57;;;;;;;4.65;4.22;;;0.70;99.90;;;;;;5073290;28;20633;-58
2021/01/03 13:07:24;;;;;;;4.97;2.80;;;0.70;99.90;;;;;;5073300;28;20211;-60
2021/01/03 13:09:51;;;;;;;4.70;3.83;;;0.80;99.90;;;;;;5073422;28;20204;-59
2021/01/03 13:12:18;;;;;;;2.72;2.10;;;0.80;99.90;;;;;;5073342;28;20199;-60
2021/01/03 13:14:46;;;;;;;5.15;3.03;;;0.80;99.90;;;;;;5073186;28;20218;-60
2021/01/03 13:17:14;;;;;;;2.58;2.38;;;0.70;99.90;;;;;;5073928;28;20192;-57
2021/01/03 13:19:42;;;;;;;2.20;1.67;;;0.80;99.90;;;;;;5073132;28;20798;-61
2021/01/03 13:22:09;;;;;;;2.97;1.88;;;0.80;99.90;;;;;;5072929;28;20199;-62
2021/01/03 13:24:36;;;;;;;2.47;2.13;;;0.80;99.90;;;;;;5073113;28;20263;-61
2021/01/03 13:27:07;;;;;;;7.38;4.82;;;0.80;99.90;;;;;;5072858;28;20200;-60
2021/01/03 13:29:34;;;;;;;4.45;2.45;;;0.80;99.90;;;;;;5072841;28;20203;-60
2021/01/03 13:32:02;;;;;;;4.35;3.85;;;0.80;99.90;;;;;;5072929;28;20176;-62
2021/01/03 13:34:30;;;;;;;4.35;2.85;;;0.80;99.90;;;;;;5082858;28;20240;-60